Cane River, Louisiana
Current Conditions -  °F | °C
As of 11:35 AM on Wednesday 26 Nov 2014 (Local Time) from KIER Reporting Station
Clear Clear  
Wind Chill: 66°   Ceiling: Unl
Heat Index: 66°   Visibility: 10mi
Dew Point: 38°   Wind: 18mph
Humidity: 35%   Direction: 250°WSW
Pressure: 30.14"   Gusts: 24mph
Location:  31.6514°N, 93.0164°W
Report Text: KIER 261735Z AUTO 25016G21KT 10SM CLR 19/03 A3014 RMK AO2 T01910033
Loading
Personal Weather Stations






























Interactive Weather Map New forecast layout! Learn more

10-Day Weather Forecast

Advertisements
Track Severe Weather on mobile